sensor_id;sensor_type;location;lat;lon;timestamp;temperature;humidity
22544;DHT22;11438;52.044;8.716;2023-06-22T00:01:58;23.70;91.00
22544;DHT22;11438;52.044;8.716;2023-06-22T00:04:24;23.70;90.90
22544;DHT22;11438;52.044;8.716;2023-06-22T00:06:50;23.60;91.20
22544;DHT22;11438;52.044;8.716;2023-06-22T00:09:16;23.60;91.10
22544;DHT22;11438;52.044;8.716;2023-06-22T00:11:41;23.60;91.60
22544;DHT22;11438;52.044;8.716;2023-06-22T00:14:07;23.50;91.10
22544;DHT22;11438;52.044;8.716;2023-06-22T00:16:33;23.50;91.30
22544;DHT22;11438;52.044;8.716;2023-06-22T00:18:59;23.50;91.40
22544;DHT22;11438;52.044;8.716;2023-06-22T00:21:26;23.40;91.60
22544;DHT22;11438;52.044;8.716;2023-06-22T00:23:52;23.50;91.60
22544;DHT22;11438;52.044;8.716;2023-06-22T00:26:18;23.40;91.50
22544;DHT22;11438;52.044;8.716;2023-06-22T00:28:43;23.40;91.70
22544;DHT22;11438;52.044;8.716;2023-06-22T00:31:09;23.40;91.90
22544;DHT22;11438;52.044;8.716;2023-06-22T00:33:34;23.40;91.90
22544;DHT22;11438;52.044;8.716;2023-06-22T00:36:00;23.40;92.20
22544;DHT22;11438;52.044;8.716;2023-06-22T00:38:28;23.30;92.10
22544;DHT22;11438;52.044;8.716;2023-06-22T00:40:53;23.30;92.20
22544;DHT22;11438;52.044;8.716;2023-06-22T00:43:19;23.30;92.20
22544;DHT22;11438;52.044;8.716;2023-06-22T00:45:45;23.20;92.60
22544;DHT22;11438;52.044;8.716;2023-06-22T00:48:12;23.30;92.20
22544;DHT22;11438;52.044;8.716;2023-06-22T00:50:38;23.20;92.50
22544;DHT22;11438;52.044;8.716;2023-06-22T00:53:06;23.30;92.50
22544;DHT22;11438;52.044;8.716;2023-06-22T00:55:41;23.20;92.40
22544;DHT22;11438;52.044;8.716;2023-06-22T00:58:09;23.20;92.60
22544;DHT22;11438;52.044;8.716;2023-06-22T01:00:36;23.20;92.50
22544;DHT22;11438;52.044;8.716;2023-06-22T01:03:02;23.20;92.40
22544;DHT22;11438;52.044;8.716;2023-06-22T01:05:27;23.20;92.70
22544;DHT22;11438;52.044;8.716;2023-06-22T01:08:00;23.20;92.80
22544;DHT22;11438;52.044;8.716;2023-06-22T01:15:58;23.20;92.90
22544;DHT22;11438;52.044;8.716;2023-06-22T01:18:28;23.20;92.80
22544;DHT22;11438;52.044;8.716;2023-06-22T01:20:55;23.20;92.80
22544;DHT22;11438;52.044;8.716;2023-06-22T01:23:33;23.20;92.90
22544;DHT22;11438;52.044;8.716;2023-06-22T01:26:25;23.10;92.90
22544;DHT22;11438;52.044;8.716;2023-06-22T01:28:55;23.20;93.00
22544;DHT22;11438;52.044;8.716;2023-06-22T01:31:24;23.10;93.00
22544;DHT22;11438;52.044;8.716;2023-06-22T01:33:54;23.20;93.00
22544;DHT22;11438;52.044;8.716;2023-06-22T01:36:21;23.10;93.10
22544;DHT22;11438;52.044;8.716;2023-06-22T01:38:48;23.10;93.20
22544;DHT22;11438;52.044;8.716;2023-06-22T01:41:15;23.10;93.10
22544;DHT22;11438;52.044;8.716;2023-06-22T01:43:42;23.10;93.10
22544;DHT22;11438;52.044;8.716;2023-06-22T01:46:08;23.00;93.20
22544;DHT22;11438;52.044;8.716;2023-06-22T01:48:34;23.10;93.20
22544;DHT22;11438;52.044;8.716;2023-06-22T01:51:00;23.00;93.20
22544;DHT22;11438;52.044;8.716;2023-06-22T01:53:25;23.00;93.40
22544;DHT22;11438;52.044;8.716;2023-06-22T01:55:51;23.00;93.30
22544;DHT22;11438;52.044;8.716;2023-06-22T01:58:20;23.00;93.40
22544;DHT22;11438;52.044;8.716;2023-06-22T02:00:53;23.00;93.30
22544;DHT22;11438;52.044;8.716;2023-06-22T02:03:28;23.00;93.40
22544;DHT22;11438;52.044;8.716;2023-06-22T02:06:01;23.00;93.40
22544;DHT22;11438;52.044;8.716;2023-06-22T02:08:39;23.00;93.50
22544;DHT22;11438;52.044;8.716;2023-06-22T02:11:06;23.00;93.40
22544;DHT22;11438;52.044;8.716;2023-06-22T02:13:33;22.90;93.50
22544;DHT22;11438;52.044;8.716;2023-06-22T02:15:59;22.90;93.60
22544;DHT22;11438;52.044;8.716;2023-06-22T02:18:25;22.90;93.50
22544;DHT22;11438;52.044;8.716;2023-06-22T02:20:51;22.90;93.60
22544;DHT22;11438;52.044;8.716;2023-06-22T02:23:16;22.80;93.50
22544;DHT22;11438;52.044;8.716;2023-06-22T02:25:42;22.80;93.50
22544;DHT22;11438;52.044;8.716;2023-06-22T02:28:09;22.80;93.50
22544;DHT22;11438;52.044;8.716;2023-06-22T02:30:35;22.80;93.70
22544;DHT22;11438;52.044;8.716;2023-06-22T02:33:01;22.80;93.90
22544;DHT22;11438;52.044;8.716;2023-06-22T02:35:30;22.70;93.80
22544;DHT22;11438;52.044;8.716;2023-06-22T02:38:01;22.70;93.80
22544;DHT22;11438;52.044;8.716;2023-06-22T02:40:28;22.70;93.80
22544;DHT22;11438;52.044;8.716;2023-06-22T02:42:58;22.70;93.90
22544;DHT22;11438;52.044;8.716;2023-06-22T02:45:26;22.70;93.90
22544;DHT22;11438;52.044;8.716;2023-06-22T02:47:52;22.60;93.90
22544;DHT22;11438;52.044;8.716;2023-06-22T02:50:18;22.70;94.00
22544;DHT22;11438;52.044;8.716;2023-06-22T02:52:43;22.60;94.00
22544;DHT22;11438;52.044;8.716;2023-06-22T02:55:09;22.60;94.00
22544;DHT22;11438;52.044;8.716;2023-06-22T02:57:34;22.60;94.20
22544;DHT22;11438;52.044;8.716;2023-06-22T03:00:00;22.60;94.20
22544;DHT22;11438;52.044;8.716;2023-06-22T03:02:27;22.60;94.30
22544;DHT22;11438;52.044;8.716;2023-06-22T03:04:53;22.60;94.30
22544;DHT22;11438;52.044;8.716;2023-06-22T03:07:22;22.60;94.30
22544;DHT22;11438;52.044;8.716;2023-06-22T03:09:47;22.60;94.20
22544;DHT22;11438;52.044;8.716;2023-06-22T03:12:12;22.60;94.30
22544;DHT22;11438;52.044;8.716;2023-06-22T03:14:38;22.50;94.20
22544;DHT22;11438;52.044;8.716;2023-06-22T03:17:04;22.50;94.20
22544;DHT22;11438;52.044;8.716;2023-06-22T03:19:30;22.60;94.30
22544;DHT22;11438;52.044;8.716;2023-06-22T03:21:59;22.50;94.40
22544;DHT22;11438;52.044;8.716;2023-06-22T03:24:24;22.50;94.50
22544;DHT22;11438;52.044;8.716;2023-06-22T03:26:50;22.50;94.30
22544;DHT22;11438;52.044;8.716;2023-06-22T03:29:15;22.50;94.50
22544;DHT22;11438;52.044;8.716;2023-06-22T03:31:41;22.50;94.60
22544;DHT22;11438;52.044;8.716;2023-06-22T03:34:06;22.50;94.50
22544;DHT22;11438;52.044;8.716;2023-06-22T03:36:32;22.50;94.50
22544;DHT22;11438;52.044;8.716;2023-06-22T03:38:57;22.50;94.50
22544;DHT22;11438;52.044;8.716;2023-06-22T03:41:23;22.50;94.50
22544;DHT22;11438;52.044;8.716;2023-06-22T03:43:48;22.40;95.20
22544;DHT22;11438;52.044;8.716;2023-06-22T03:46:14;22.40;94.80
22544;DHT22;11438;52.044;8.716;2023-06-22T03:48:39;22.40;94.60
22544;DHT22;11438;52.044;8.716;2023-06-22T03:51:05;22.40;94.70
22544;DHT22;11438;52.044;8.716;2023-06-22T03:53:31;22.40;94.90
22544;DHT22;11438;52.044;8.716;2023-06-22T03:55:56;22.40;94.90
22544;DHT22;11438;52.044;8.716;2023-06-22T03:58:22;22.40;94.90
22544;DHT22;11438;52.044;8.716;2023-06-22T04:00:52;22.40;94.90
22544;DHT22;11438;52.044;8.716;2023-06-22T04:03:18;22.40;95.10
22544;DHT22;11438;52.044;8.716;2023-06-22T04:05:44;22.50;95.10
22544;DHT22;11438;52.044;8.716;2023-06-22T04:08:10;22.50;95.10
22544;DHT22;11438;52.044;8.716;2023-06-22T04:10:35;22.50;95.00
22544;DHT22;11438;52.044;8.716;2023-06-22T04:13:01;22.50;95.10
22544;DHT22;11438;52.044;8.716;2023-06-22T04:15:27;22.50;95.10
22544;DHT22;11438;52.044;8.716;2023-06-22T04:17:54;22.60;95.10
22544;DHT22;11438;52.044;8.716;2023-06-22T04:20:20;22.60;95.20
22544;DHT22;11438;52.044;8.716;2023-06-22T04:22:46;22.60;95.10
22544;DHT22;11438;52.044;8.716;2023-06-22T04:25:11;22.60;95.10
22544;DHT22;11438;52.044;8.716;2023-06-22T04:27:37;22.60;95.30
22544;DHT22;11438;52.044;8.716;2023-06-22T04:30:06;22.70;95.30
22544;DHT22;11438;52.044;8.716;2023-06-22T04:32:32;22.70;95.30
22544;DHT22;11438;52.044;8.716;2023-06-22T04:34:58;22.70;95.10
22544;DHT22;11438;52.044;8.716;2023-06-22T04:37:25;22.70;95.20
22544;DHT22;11438;52.044;8.716;2023-06-22T04:39:51;22.70;95.20
22544;DHT22;11438;52.044;8.716;2023-06-22T04:42:16;22.70;95.30
22544;DHT22;11438;52.044;8.716;2023-06-22T04:44:42;22.80;95.30
22544;DHT22;11438;52.044;8.716;2023-06-22T04:47:07;22.80;95.30
22544;DHT22;11438;52.044;8.716;2023-06-22T04:49:36;22.80;95.40
22544;DHT22;11438;52.044;8.716;2023-06-22T04:52:04;22.90;95.40
22544;DHT22;11438;52.044;8.716;2023-06-22T04:54:30;22.90;95.30
22544;DHT22;11438;52.044;8.716;2023-06-22T04:56:58;22.90;95.40
22544;DHT22;11438;52.044;8.716;2023-06-22T04:59:24;22.90;95.40
22544;DHT22;11438;52.044;8.716;2023-06-22T05:01:55;23.00;95.50
22544;DHT22;11438;52.044;8.716;2023-06-22T05:04:22;23.00;95.40
22544;DHT22;11438;52.044;8.716;2023-06-22T05:06:48;23.00;95.50
22544;DHT22;11438;52.044;8.716;2023-06-22T05:09:14;23.00;95.30
22544;DHT22;11438;52.044;8.716;2023-06-22T05:11:40;23.00;95.30
22544;DHT22;11438;52.044;8.716;2023-06-22T05:14:05;23.10;95.40
22544;DHT22;11438;52.044;8.716;2023-06-22T05:16:31;23.10;95.40
22544;DHT22;11438;52.044;8.716;2023-06-22T05:18:56;23.10;95.40
22544;DHT22;11438;52.044;8.716;2023-06-22T05:21:23;23.10;95.80
22544;DHT22;11438;52.044;8.716;2023-06-22T05:23:50;23.20;95.60
22544;DHT22;11438;52.044;8.716;2023-06-22T05:26:15;23.30;95.60
22544;DHT22;11438;52.044;8.716;2023-06-22T05:28:41;23.40;95.60
22544;DHT22;11438;52.044;8.716;2023-06-22T05:31:06;23.40;95.70
22544;DHT22;11438;52.044;8.716;2023-06-22T05:33:32;23.50;95.60
22544;DHT22;11438;52.044;8.716;2023-06-22T05:35:57;23.60;95.70
22544;DHT22;11438;52.044;8.716;2023-06-22T05:38:23;23.60;95.60
22544;DHT22;11438;52.044;8.716;2023-06-22T05:40:48;23.70;95.60
22544;DHT22;11438;52.044;8.716;2023-06-22T05:43:14;23.70;95.60
22544;DHT22;11438;52.044;8.716;2023-06-22T05:45:40;23.80;95.80
22544;DHT22;11438;52.044;8.716;2023-06-22T05:48:05;23.90;95.70
22544;DHT22;11438;52.044;8.716;2023-06-22T05:50:31;23.90;95.50
22544;DHT22;11438;52.044;8.716;2023-06-22T05:52:56;23.90;95.90
22544;DHT22;11438;52.044;8.716;2023-06-22T05:55:22;24.00;96.20
22544;DHT22;11438;52.044;8.716;2023-06-22T05:57:47;23.90;95.80
22544;DHT22;11438;52.044;8.716;2023-06-22T06:00:13;24.00;95.80
22544;DHT22;11438;52.044;8.716;2023-06-22T06:02:40;24.00;95.80
22544;DHT22;11438;52.044;8.716;2023-06-22T06:05:10;24.00;95.70
22544;DHT22;11438;52.044;8.716;2023-06-22T06:07:35;24.00;95.90
22544;DHT22;11438;52.044;8.716;2023-06-22T06:10:02;24.00;95.80
22544;DHT22;11438;52.044;8.716;2023-06-22T06:12:29;24.10;96.00
22544;DHT22;11438;52.044;8.716;2023-06-22T06:14:55;24.10;96.10
22544;DHT22;11438;52.044;8.716;2023-06-22T06:17:21;24.20;96.10
22544;DHT22;11438;52.044;8.716;2023-06-22T06:19:47;24.20;96.10
22544;DHT22;11438;52.044;8.716;2023-06-22T06:22:12;24.30;95.80
22544;DHT22;11438;52.044;8.716;2023-06-22T06:24:38;24.40;95.70
22544;DHT22;11438;52.044;8.716;2023-06-22T06:27:03;24.50;95.90
22544;DHT22;11438;52.044;8.716;2023-06-22T06:29:30;24.50;96.20
22544;DHT22;11438;52.044;8.716;2023-06-22T06:31:56;24.60;96.00
22544;DHT22;11438;52.044;8.716;2023-06-22T06:34:22;24.70;96.00
22544;DHT22;11438;52.044;8.716;2023-06-22T06:36:47;24.80;95.80
22544;DHT22;11438;52.044;8.716;2023-06-22T06:39:13;24.80;96.00
22544;DHT22;11438;52.044;8.716;2023-06-22T06:41:38;25.00;96.20
22544;DHT22;11438;52.044;8.716;2023-06-22T06:44:04;25.00;96.00
22544;DHT22;11438;52.044;8.716;2023-06-22T06:46:29;25.10;95.90
22544;DHT22;11438;52.044;8.716;2023-06-22T06:48:55;25.20;95.70
22544;DHT22;11438;52.044;8.716;2023-06-22T06:51:20;25.30;95.60
22544;DHT22;11438;52.044;8.716;2023-06-22T06:53:46;25.40;95.50
22544;DHT22;11438;52.044;8.716;2023-06-22T06:56:11;25.40;95.40
22544;DHT22;11438;52.044;8.716;2023-06-22T06:58:40;25.50;95.50
22544;DHT22;11438;52.044;8.716;2023-06-22T07:01:06;25.60;95.40
22544;DHT22;11438;52.044;8.716;2023-06-22T07:03:31;25.60;95.50
22544;DHT22;11438;52.044;8.716;2023-06-22T07:05:58;25.70;95.40
22544;DHT22;11438;52.044;8.716;2023-06-22T07:08:24;25.80;95.30
22544;DHT22;11438;52.044;8.716;2023-06-22T07:10:49;25.90;95.20
22544;DHT22;11438;52.044;8.716;2023-06-22T07:13:15;25.90;95.30
22544;DHT22;11438;52.044;8.716;2023-06-22T07:15:40;26.00;95.30
22544;DHT22;11438;52.044;8.716;2023-06-22T07:18:06;26.00;95.40
22544;DHT22;11438;52.044;8.716;2023-06-22T07:20:31;26.10;95.00
22544;DHT22;11438;52.044;8.716;2023-06-22T07:22:57;26.10;94.80
22544;DHT22;11438;52.044;8.716;2023-06-22T07:25:23;26.20;94.80
22544;DHT22;11438;52.044;8.716;2023-06-22T07:28:06;26.20;94.80
22544;DHT22;11438;52.044;8.716;2023-06-22T07:30:32;26.20;94.90
22544;DHT22;11438;52.044;8.716;2023-06-22T07:32:58;26.30;94.70
22544;DHT22;11438;52.044;8.716;2023-06-22T07:35:29;26.30;94.60
22544;DHT22;11438;52.044;8.716;2023-06-22T07:37:55;26.30;94.90
22544;DHT22;11438;52.044;8.716;2023-06-22T07:40:20;26.30;94.50
22544;DHT22;11438;52.044;8.716;2023-06-22T07:42:46;26.30;94.40
22544;DHT22;11438;52.044;8.716;2023-06-22T07:45:13;26.30;94.50
22544;DHT22;11438;52.044;8.716;2023-06-22T07:47:39;26.30;94.40
22544;DHT22;11438;52.044;8.716;2023-06-22T07:50:05;26.30;94.40
22544;DHT22;11438;52.044;8.716;2023-06-22T07:52:31;26.30;94.60
22544;DHT22;11438;52.044;8.716;2023-06-22T07:54:57;26.30;94.60
22544;DHT22;11438;52.044;8.716;2023-06-22T07:57:23;26.40;94.80
22544;DHT22;11438;52.044;8.716;2023-06-22T07:59:48;26.40;94.60
22544;DHT22;11438;52.044;8.716;2023-06-22T08:02:14;26.40;94.90
22544;DHT22;11438;52.044;8.716;2023-06-22T08:04:39;26.50;94.70
22544;DHT22;11438;52.044;8.716;2023-06-22T08:07:06;26.50;94.70
22544;DHT22;11438;52.044;8.716;2023-06-22T08:09:32;26.50;94.60
22544;DHT22;11438;52.044;8.716;2023-06-22T08:11:58;26.50;94.50
22544;DHT22;11438;52.044;8.716;2023-06-22T08:14:25;26.60;94.60
22544;DHT22;11438;52.044;8.716;2023-06-22T08:16:51;26.60;94.50
22544;DHT22;11438;52.044;8.716;2023-06-22T08:19:17;26.60;94.40
22544;DHT22;11438;52.044;8.716;2023-06-22T08:21:43;26.60;94.40
22544;DHT22;11438;52.044;8.716;2023-06-22T08:24:08;26.60;94.40
22544;DHT22;11438;52.044;8.716;2023-06-22T08:26:34;26.70;94.50
22544;DHT22;11438;52.044;8.716;2023-06-22T08:29:03;26.70;94.60
22544;DHT22;11438;52.044;8.716;2023-06-22T08:31:28;26.70;94.60
22544;DHT22;11438;52.044;8.716;2023-06-22T08:33:54;26.70;94.50
22544;DHT22;11438;52.044;8.716;2023-06-22T08:36:19;26.70;94.40
22544;DHT22;11438;52.044;8.716;2023-06-22T08:38:45;26.70;94.60
22544;DHT22;11438;52.044;8.716;2023-06-22T08:41:15;26.70;94.90
22544;DHT22;11438;52.044;8.716;2023-06-22T08:43:41;26.80;95.20
22544;DHT22;11438;52.044;8.716;2023-06-22T08:46:08;26.80;95.70
22544;DHT22;11438;52.044;8.716;2023-06-22T08:48:33;26.90;96.10
22544;DHT22;11438;52.044;8.716;2023-06-22T08:50:59;26.90;96.50
22544;DHT22;11438;52.044;8.716;2023-06-22T08:53:24;27.00;96.00
22544;DHT22;11438;52.044;8.716;2023-06-22T08:55:50;27.10;95.50
22544;DHT22;11438;52.044;8.716;2023-06-22T08:58:16;27.20;95.00
22544;DHT22;11438;52.044;8.716;2023-06-22T09:00:41;27.30;95.30
22544;DHT22;11438;52.044;8.716;2023-06-22T09:03:07;27.40;95.20
22544;DHT22;11438;52.044;8.716;2023-06-22T09:05:33;27.50;95.20
22544;DHT22;11438;52.044;8.716;2023-06-22T09:07:58;27.60;95.10
22544;DHT22;11438;52.044;8.716;2023-06-22T09:10:25;27.70;94.90
22544;DHT22;11438;52.044;8.716;2023-06-22T09:12:50;27.80;94.50
22544;DHT22;11438;52.044;8.716;2023-06-22T09:15:16;27.90;94.50
22544;DHT22;11438;52.044;8.716;2023-06-22T09:17:41;27.90;94.20
22544;DHT22;11438;52.044;8.716;2023-06-22T09:20:07;28.00;94.20
22544;DHT22;11438;52.044;8.716;2023-06-22T09:22:36;28.10;94.10
22544;DHT22;11438;52.044;8.716;2023-06-22T09:25:01;28.10;93.90
22544;DHT22;11438;52.044;8.716;2023-06-22T09:27:28;28.10;93.90
22544;DHT22;11438;52.044;8.716;2023-06-22T09:29:53;28.20;93.70
22544;DHT22;11438;52.044;8.716;2023-06-22T09:32:19;28.20;93.40
22544;DHT22;11438;52.044;8.716;2023-06-22T09:34:44;28.30;93.30
22544;DHT22;11438;52.044;8.716;2023-06-22T09:37:09;28.30;93.40
22544;DHT22;11438;52.044;8.716;2023-06-22T09:39:35;28.40;93.60
22544;DHT22;11438;52.044;8.716;2023-06-22T09:42:02;28.50;93.40
22544;DHT22;11438;52.044;8.716;2023-06-22T09:44:27;28.50;93.40
22544;DHT22;11438;52.044;8.716;2023-06-22T09:46:53;28.60;93.10
22544;DHT22;11438;52.044;8.716;2023-06-22T09:49:18;28.70;93.00
22544;DHT22;11438;52.044;8.716;2023-06-22T09:51:44;28.70;93.00
22544;DHT22;11438;52.044;8.716;2023-06-22T09:54:09;28.80;93.10
22544;DHT22;11438;52.044;8.716;2023-06-22T09:56:35;28.80;93.00
22544;DHT22;11438;52.044;8.716;2023-06-22T09:59:02;28.80;93.00
22544;DHT22;11438;52.044;8.716;2023-06-22T10:01:28;28.90;92.90
22544;DHT22;11438;52.044;8.716;2023-06-22T10:03:54;28.90;92.90
22544;DHT22;11438;52.044;8.716;2023-06-22T10:06:23;29.00;92.90
22544;DHT22;11438;52.044;8.716;2023-06-22T10:08:50;29.00;92.70
22544;DHT22;11438;52.044;8.716;2023-06-22T10:11:16;29.10;92.70
22544;DHT22;11438;52.044;8.716;2023-06-22T10:13:41;29.10;92.80
22544;DHT22;11438;52.044;8.716;2023-06-22T10:16:07;29.10;92.50
22544;DHT22;11438;52.044;8.716;2023-06-22T10:18:32;29.30;93.00
22544;DHT22;11438;52.044;8.716;2023-06-22T10:20:58;29.30;93.10
22544;DHT22;11438;52.044;8.716;2023-06-22T10:23:23;29.40;92.20
22544;DHT22;11438;52.044;8.716;2023-06-22T10:25:49;29.50;92.30
22544;DHT22;11438;52.044;8.716;2023-06-22T10:28:15;29.60;91.90
22544;DHT22;11438;52.044;8.716;2023-06-22T10:30:41;29.70;92.20
22544;DHT22;11438;52.044;8.716;2023-06-22T10:33:11;29.90;91.90
22544;DHT22;11438;52.044;8.716;2023-06-22T10:35:37;29.90;91.90
22544;DHT22;11438;52.044;8.716;2023-06-22T10:38:03;30.00;91.00
22544;DHT22;11438;52.044;8.716;2023-06-22T10:40:29;30.10;90.70
22544;DHT22;11438;52.044;8.716;2023-06-22T10:42:54;30.20;90.70
22544;DHT22;11438;52.044;8.716;2023-06-22T10:45:20;30.30;90.50
22544;DHT22;11438;52.044;8.716;2023-06-22T10:47:46;30.30;90.50
22544;DHT22;11438;52.044;8.716;2023-06-22T10:50:11;30.40;90.70
22544;DHT22;11438;52.044;8.716;2023-06-22T10:52:37;30.50;90.50
22544;DHT22;11438;52.044;8.716;2023-06-22T10:55:03;30.50;90.50
22544;DHT22;11438;52.044;8.716;2023-06-22T10:57:29;30.60;90.50
22544;DHT22;11438;52.044;8.716;2023-06-22T10:59:54;30.70;90.20
22544;DHT22;11438;52.044;8.716;2023-06-22T11:02:20;30.70;89.10
22544;DHT22;11438;52.044;8.716;2023-06-22T11:04:45;30.80;89.70
22544;DHT22;11438;52.044;8.716;2023-06-22T11:07:11;30.80;89.90
22544;DHT22;11438;52.044;8.716;2023-06-22T11:09:36;30.90;88.60
22544;DHT22;11438;52.044;8.716;2023-06-22T11:12:03;30.90;88.70
22544;DHT22;11438;52.044;8.716;2023-06-22T11:14:29;30.90;86.80
22544;DHT22;11438;52.044;8.716;2023-06-22T11:16:55;30.80;86.90
22544;DHT22;11438;52.044;8.716;2023-06-22T11:19:21;30.80;87.10
22544;DHT22;11438;52.044;8.716;2023-06-22T11:21:47;30.80;87.70
22544;DHT22;11438;52.044;8.716;2023-06-22T11:24:12;30.70;86.50
22544;DHT22;11438;52.044;8.716;2023-06-22T11:26:38;30.70;86.00
22544;DHT22;11438;52.044;8.716;2023-06-22T11:29:03;30.70;85.90
22544;DHT22;11438;52.044;8.716;2023-06-22T11:31:35;30.80;86.90
22544;DHT22;11438;52.044;8.716;2023-06-22T11:34:01;30.80;86.50
22544;DHT22;11438;52.044;8.716;2023-06-22T11:36:27;30.80;85.70
22544;DHT22;11438;52.044;8.716;2023-06-22T11:38:52;30.90;86.30
22544;DHT22;11438;52.044;8.716;2023-06-22T11:41:18;30.90;85.80
22544;DHT22;11438;52.044;8.716;2023-06-22T11:43:44;30.90;86.40
22544;DHT22;11438;52.044;8.716;2023-06-22T11:46:10;30.90;86.80
22544;DHT22;11438;52.044;8.716;2023-06-22T11:48:35;30.90;87.20
22544;DHT22;11438;52.044;8.716;2023-06-22T11:51:02;30.90;86.20
22544;DHT22;11438;52.044;8.716;2023-06-22T11:53:29;31.00;86.10
22544;DHT22;11438;52.044;8.716;2023-06-22T11:55:55;30.90;85.10
22544;DHT22;11438;52.044;8.716;2023-06-22T11:58:22;30.90;86.10
22544;DHT22;11438;52.044;8.716;2023-06-22T12:00:48;30.90;86.40
22544;DHT22;11438;52.044;8.716;2023-06-22T12:03:13;30.90;85.50
22544;DHT22;11438;52.044;8.716;2023-06-22T12:05:40;30.90;85.00
22544;DHT22;11438;52.044;8.716;2023-06-22T12:08:06;30.90;85.00
22544;DHT22;11438;52.044;8.716;2023-06-22T12:10:31;30.80;84.70
22544;DHT22;11438;52.044;8.716;2023-06-22T12:12:57;30.80;86.10
22544;DHT22;11438;52.044;8.716;2023-06-22T12:15:23;30.80;85.60
22544;DHT22;11438;52.044;8.716;2023-06-22T12:17:49;30.70;85.50
22544;DHT22;11438;52.044;8.716;2023-06-22T12:20:15;30.70;85.40
22544;DHT22;11438;52.044;8.716;2023-06-22T12:22:40;30.70;85.20
22544;DHT22;11438;52.044;8.716;2023-06-22T12:25:07;30.70;85.30
22544;DHT22;11438;52.044;8.716;2023-06-22T12:27:32;30.70;85.10
22544;DHT22;11438;52.044;8.716;2023-06-22T12:29:58;30.70;84.70
22544;DHT22;11438;52.044;8.716;2023-06-22T12:32:23;30.70;85.10
22544;DHT22;11438;52.044;8.716;2023-06-22T12:34:49;30.60;85.00
22544;DHT22;11438;52.044;8.716;2023-06-22T12:37:15;30.60;83.70
22544;DHT22;11438;52.044;8.716;2023-06-22T12:39:41;30.60;83.80
22544;DHT22;11438;52.044;8.716;2023-06-22T12:42:07;30.60;84.20
22544;DHT22;11438;52.044;8.716;2023-06-22T12:44:34;30.50;84.00
22544;DHT22;11438;52.044;8.716;2023-06-22T12:47:00;30.40;84.00
22544;DHT22;11438;52.044;8.716;2023-06-22T12:49:25;30.30;84.00
22544;DHT22;11438;52.044;8.716;2023-06-22T12:51:51;30.30;83.70
22544;DHT22;11438;52.044;8.716;2023-06-22T12:54:16;30.20;84.00
22544;DHT22;11438;52.044;8.716;2023-06-22T12:56:42;30.10;85.10
22544;DHT22;11438;52.044;8.716;2023-06-22T12:59:10;30.10;84.90
22544;DHT22;11438;52.044;8.716;2023-06-22T13:01:35;30.00;85.70
22544;DHT22;11438;52.044;8.716;2023-06-22T13:04:02;29.90;85.20
22544;DHT22;11438;52.044;8.716;2023-06-22T13:06:28;29.90;85.10
22544;DHT22;11438;52.044;8.716;2023-06-22T13:08:53;29.80;85.60
22544;DHT22;11438;52.044;8.716;2023-06-22T13:11:19;29.80;85.30
22544;DHT22;11438;52.044;8.716;2023-06-22T13:13:45;29.70;85.00
22544;DHT22;11438;52.044;8.716;2023-06-22T13:16:11;29.60;85.40
22544;DHT22;11438;52.044;8.716;2023-06-22T13:18:37;29.50;86.00
22544;DHT22;11438;52.044;8.716;2023-06-22T13:21:03;29.50;87.50
22544;DHT22;11438;52.044;8.716;2023-06-22T13:23:29;29.40;87.70
22544;DHT22;11438;52.044;8.716;2023-06-22T13:25:54;29.40;88.70
22544;DHT22;11438;52.044;8.716;2023-06-22T13:28:20;29.30;89.50
22544;DHT22;11438;52.044;8.716;2023-06-22T13:30:46;29.30;89.50
22544;DHT22;11438;52.044;8.716;2023-06-22T13:33:13;29.20;90.00
22544;DHT22;11438;52.044;8.716;2023-06-22T13:35:39;29.10;90.10
22544;DHT22;11438;52.044;8.716;2023-06-22T13:38:04;29.10;90.30
22544;DHT22;11438;52.044;8.716;2023-06-22T13:40:30;29.00;90.60
22544;DHT22;11438;52.044;8.716;2023-06-22T13:42:56;29.00;90.90
22544;DHT22;11438;52.044;8.716;2023-06-22T13:45:22;28.90;91.60
22544;DHT22;11438;52.044;8.716;2023-06-22T13:47:47;28.80;92.00
22544;DHT22;11438;52.044;8.716;2023-06-22T13:50:13;28.80;92.10
22544;DHT22;11438;52.044;8.716;2023-06-22T13:52:39;28.70;92.20
22544;DHT22;11438;52.044;8.716;2023-06-22T13:55:05;28.60;91.90
22544;DHT22;11438;52.044;8.716;2023-06-22T13:57:32;28.50;92.20
22544;DHT22;11438;52.044;8.716;2023-06-22T13:59:59;28.40;92.40
22544;DHT22;11438;52.044;8.716;2023-06-22T14:02:26;28.40;93.10
22544;DHT22;11438;52.044;8.716;2023-06-22T14:04:51;28.30;93.70
22544;DHT22;11438;52.044;8.716;2023-06-22T14:07:17;28.20;93.60
22544;DHT22;11438;52.044;8.716;2023-06-22T14:09:44;28.20;93.90
22544;DHT22;11438;52.044;8.716;2023-06-22T14:12:10;28.10;93.40
22544;DHT22;11438;52.044;8.716;2023-06-22T14:14:36;28.00;92.80
22544;DHT22;11438;52.044;8.716;2023-06-22T14:17:02;28.00;92.30
22544;DHT22;11438;52.044;8.716;2023-06-22T14:19:28;27.90;92.30
22544;DHT22;11438;52.044;8.716;2023-06-22T14:21:53;27.70;92.40
22544;DHT22;11438;52.044;8.716;2023-06-22T14:24:19;27.60;92.70
22544;DHT22;11438;52.044;8.716;2023-06-22T14:26:44;27.50;93.30
22544;DHT22;11438;52.044;8.716;2023-06-22T14:29:10;27.30;93.70
22544;DHT22;11438;52.044;8.716;2023-06-22T14:31:35;27.20;94.20
22544;DHT22;11438;52.044;8.716;2023-06-22T14:34:01;27.10;94.40
22544;DHT22;11438;52.044;8.716;2023-06-22T14:36:27;26.90;94.50
22544;DHT22;11438;52.044;8.716;2023-06-22T14:38:53;26.80;94.80
22544;DHT22;11438;52.044;8.716;2023-06-22T14:41:19;26.70;95.00
22544;DHT22;11438;52.044;8.716;2023-06-22T14:43:49;26.60;95.00
22544;DHT22;11438;52.044;8.716;2023-06-22T14:46:15;26.50;95.80
22544;DHT22;11438;52.044;8.716;2023-06-22T14:48:42;26.40;95.30
22544;DHT22;11438;52.044;8.716;2023-06-22T14:51:08;26.40;95.40
22544;DHT22;11438;52.044;8.716;2023-06-22T14:53:34;26.30;95.70
22544;DHT22;11438;52.044;8.716;2023-06-22T14:56:00;26.30;95.90
22544;DHT22;11438;52.044;8.716;2023-06-22T14:58:28;26.30;96.00
22544;DHT22;11438;52.044;8.716;2023-06-22T15:00:54;26.20;96.10
22544;DHT22;11438;52.044;8.716;2023-06-22T15:03:19;26.20;96.20
22544;DHT22;11438;52.044;8.716;2023-06-22T15:05:50;26.10;96.40
22544;DHT22;11438;52.044;8.716;2023-06-22T15:08:16;26.10;96.50
22544;DHT22;11438;52.044;8.716;2023-06-22T15:10:41;26.10;96.60
22544;DHT22;11438;52.044;8.716;2023-06-22T15:13:07;26.10;96.60
22544;DHT22;11438;52.044;8.716;2023-06-22T15:15:32;26.10;96.80
22544;DHT22;11438;52.044;8.716;2023-06-22T15:17:59;26.00;96.80
22544;DHT22;11438;52.044;8.716;2023-06-22T15:20:24;26.00;96.90
22544;DHT22;11438;52.044;8.716;2023-06-22T15:22:49;26.00;97.20
22544;DHT22;11438;52.044;8.716;2023-06-22T15:25:15;26.10;97.60
22544;DHT22;11438;52.044;8.716;2023-06-22T15:27:41;26.00;97.60
22544;DHT22;11438;52.044;8.716;2023-06-22T15:30:07;26.10;97.70